Flight Track Log - Related Links

Times and Time Zones

All times are in EDT time to prevent confusion due to time zone crossing. See the CTL22 flight status page for this flight to view local times or setup timezone preferences in your user account.

Time Position Orientation Groundspeed Altitude Reporting Facility
EDT Latitude Longitude Course Direction KTS MPH feet Rate Location/Type
Fri 08:22:19 PM 42.2081 -85.4125 115° Southeast 137 158 4,400  Level Chicago Center
Fri 08:23:21 PM 42.1919 -85.3656 115° Southeast 139 160 5,200 726 Climbing Chicago Center
Fri 08:24:23 PM 42.1719 -85.3164 119° Southeast 146 168 5,900 672 Climbing Chicago Center
Fri 08:25:00 PM 42.1722 -85.1823 103° East  Level Estimated
Fri 08:25:26 PM 42.1522 -85.2658 118° Southeast 150 173 6,600  Level Chicago Center
Fri 08:26:00 PM 42.1617 -85.1208 103° East  Level Estimated
Fri 08:26:28 PM 42.1333 -85.2131 116° Southeast 154 177 7,000  Level Chicago Center
Fri 08:27:30 PM 42.1100 -85.1561 119° Southeast 169 194 7,000  Level Chicago Center
Fri 08:28:32 PM 42.0906 -85.0925 112° Southeast 180 207 7,000  Level Chicago Center
Fri 08:29:34 PM 42.0619 -85.0181 117° Southeast 185 213 7,000  Level Chicago Center
Fri 08:30:36 PM 42.0378 -84.9581 118° Southeast 184 212 7,000  Level Chicago Center
Fri 08:31:38 PM 42.0136 -84.8978 118° Southeast 183 211 7,000 48 Level Chicago Center
Fri 08:32:40 PM 41.9953 -84.8350 111° Southeast 181 208 7,100 48 Climbing Chicago Center
Fri 08:33:42 PM 41.9769 -84.7725 112° Southeast 180 207 7,100  Level Chicago Center
Fri 08:34:44 PM 41.9583 -84.7100 112° Southeast 180 207 7,100  Level Chicago Center
Fri 08:35:46 PM 41.9358 -84.6347 112° Southeast 180 207 7,100  Level Chicago Center
Fri 08:36:48 PM 41.9161 -84.5725 113° Southeast 180 207 7,100  Level Chicago Center
Fri 08:37:50 PM 41.9042 -84.5075 104° East 180 207 7,100 -48 Level Chicago Center
Fri 08:38:52 PM 41.8844 -84.4475 114° Southeast 176 203 7,000  Descending Chicago Center
Fri 08:39:54 PM 41.8578 -84.3886 121° Southeast 178 205 7,100 48 Climbing Chicago Center
Fri 08:40:56 PM 41.8344 -84.3278 117° Southeast 182 209 7,100  Level Chicago Center
Fri 08:41:58 PM 41.8119 -84.2669 116° Southeast 182 209 7,100  Level Chicago Center
Fri 08:43:00 PM 41.7850 -84.1947 117° Southeast 182 209 7,100  Level Chicago Center
Fri 08:44:02 PM 41.7619 -84.1358 118° Southeast 181 208 7,100  Level Chicago Center
Fri 09:01:54 PM 41.6178 -82.9858 99° East 180 207 7,100  Level Cleveland Center
Fri 09:02:18 PM 41.6142 -82.9606 101° East 179 206 7,100  Level Cleveland Center
Fri 09:03:07 PM 41.6092 -82.9075 97° East 177 204 7,100 -52 Level Cleveland Center
Fri 09:04:13 PM 41.6064 -82.8353 93° East 177 204 7,000  Descending Cleveland Center
Fri 09:05:14 PM 41.5950 -82.7683 103° East 179 206 7,100 49 Climbing Cleveland Center
Fri 09:06:15 PM 41.5881 -82.7042 98° East 179 206 7,100 -47 Level Cleveland Center
Fri 09:07:21 PM 41.5894 -82.6319 89° East 173 199 7,000 -45 Descending Cleveland Center
Fri 09:08:28 PM 41.5844 -82.5597 95° East 175 201 7,000 -344 Level Cleveland Center
Fri 09:09:23 PM 41.5792 -82.4956 96° East 195 224 6,300 -1,096 Descending Cleveland Center
Fri 09:10:23 PM 41.5742 -82.4206 95° East 202 232 4,900 -1,140 Descending Cleveland Center
Fri 09:11:24 PM 41.5692 -82.3483 95° East 199 229 4,000 -446 Descending Cleveland Center
Fri 09:12:24 PM 41.5658 -82.2789 94° East 178 205 4,000 -248 Level Cleveland Center
Fri 09:13:25 PM 41.5606 -82.2150 96° East 175 201 3,500 -656 Descending Cleveland Center
Fri 09:14:32 PM 41.5556 -82.1314 95° East 198 228 2,600 -472 Descending Cleveland Center
Fri 09:15:32 PM 41.5500 -82.0647 96° East 178 205 2,500 -50 Descending Cleveland Center
Fri 09:16:33 PM 41.5447 -82.0036 97° East 169 194 2,500 -259 Level Cleveland Center
Fri 09:17:28 PM 41.5392 -81.9453 97° East 180 207 2,000 -365 Descending Cleveland Center
Fri 09:18:28 PM 41.5294 -81.8783 101° East 178 205 1,800 -99 Descending Cleveland Center
Fri 09:19:29 PM 41.5217 -81.8172 100° East 162 186 1,800 -257 Level Cleveland Center
Fri 09:20:48 PM 41.5100 -81.7394 101° East 149 171 1,200 -446 Descending Cleveland Center
Fri 09:21:30 PM 41.5103 -81.7117 89° East 99 114 900 -429 Descending Cleveland Center
Fri 09:23:00 PM 41.5175 -81.6833 90° East  Level Estimated
Fri 09:30:00 PM 41.5175 -81.6833 90° East  Level Estimated

Login

Don't have an account? Register now (free) for customized features, flight alerts, and more!